Time;durP1;ratioP1;P1;durP2;ratioP2;P2;SDS_P1;SDS_P2;PMS_P1;PMS_P2;Temp;Humidity;BMP_temperature;BMP_pressure;BME280_temperature;BME280_humidity;BME280_pressure;Samples;Min_cycle;Max_cycle;Signal;HPM_P1;HPM_P2
2022/07/20 00:01:32;;;;;;;9.50;9.20;;;23.60;99.90;;;;;;5082356;28;20285;-81
2022/07/20 00:04:01;;;;;;;9.50;9.20;;;23.50;99.90;;;;;;5090945;28;20243;-81
2022/07/20 00:06:32;;;;;;;9.10;8.90;;;23.50;99.90;;;;;;5098246;28;20225;-81
2022/07/20 00:11:56;;;;;;;9.40;9.10;;;23.40;99.90;;;;;;5098876;28;20222;-82
2022/07/20 00:14:25;;;;;;;9.05;8.85;;;23.30;99.90;;;;;;5090912;28;20241;-81
2022/07/20 00:16:55;;;;;;;9.15;8.90;;;23.20;99.90;;;;;;5090181;28;20260;-81
2022/07/20 00:19:26;;;;;;;9.35;9.05;;;23.20;99.90;;;;;;5088946;28;20226;-81
2022/07/20 00:21:55;;;;;;;9.48;9.18;;;23.10;99.90;;;;;;5087550;28;20260;-81
2022/07/20 00:24:24;;;;;;;9.50;9.20;;;23.00;99.90;;;;;;5087235;28;20245;-81
2022/07/20 00:29:49;;;;;;;9.50;9.20;;;22.90;99.90;;;;;;5086872;28;20236;-81
2022/07/20 00:32:22;;;;;;;9.38;9.07;;;22.80;99.90;;;;;;5085952;28;20325;-81
2022/07/20 00:34:50;;;;;;;9.50;9.20;;;22.70;99.90;;;;;;5085891;28;20230;-82
2022/07/20 00:37:17;;;;;;;9.57;9.27;;;22.60;99.90;;;;;;5085834;28;20222;-81
2022/07/20 00:45:11;;;;;;;9.52;9.23;;;22.40;99.90;;;;;;5085502;28;20264;-81
2022/07/20 00:47:51;;;;;;;9.25;8.95;;;22.40;99.90;;;;;;5085079;28;20226;-81
2022/07/20 00:50:21;;;;;;;9.60;9.30;;;22.30;99.90;;;;;;5084682;28;20217;-81
2022/07/20 00:52:49;;;;;;;9.50;9.20;;;22.30;99.90;;;;;;5086042;28;20238;-81
2022/07/20 00:55:17;;;;;;;9.30;9.00;;;22.20;99.90;;;;;;5085389;28;20263;-81
2022/07/20 00:58:17;;;;;;;9.30;9.00;;;22.10;99.90;;;;;;5089211;28;20256;-81
2022/07/20 01:00:53;;;;;;;9.27;8.98;;;22.10;99.90;;;;;;5089030;28;20234;-81
2022/07/20 01:03:23;;;;;;;9.40;9.10;;;22.00;99.90;;;;;;5087878;28;20253;-81
2022/07/20 01:05:53;;;;;;;9.45;9.15;;;21.90;99.90;;;;;;5087767;28;20222;-81
2022/07/20 01:08:22;;;;;;;9.30;9.00;;;21.90;99.90;;;;;;5087886;28;20313;-82
2022/07/20 01:10:50;;;;;;;9.07;8.85;;;21.90;99.90;;;;;;5087068;28;20288;-81
2022/07/20 01:13:57;;;;;;;8.95;8.75;;;21.80;99.90;;;;;;5090489;28;20242;-81
2022/07/20 01:16:25;;;;;;;8.98;8.77;;;21.80;99.90;;;;;;5093272;28;20220;-81
2022/07/20 01:21:43;;;;;;;8.98;8.77;;;21.70;99.90;;;;;;5096821;28;20313;-81
2022/07/20 01:24:14;;;;;;;9.15;8.88;;;21.60;99.90;;;;;;5109208;22;20241;-84
2022/07/20 01:26:43;;;;;;;8.90;8.70;;;21.50;99.90;;;;;;5081669;28;20247;-83
2022/07/20 01:29:11;;;;;;;8.90;8.70;;;21.50;99.90;;;;;;5082953;28;20234;-83
2022/07/20 01:31:39;;;;;;;8.85;8.65;;;21.40;99.90;;;;;;5082513;28;20303;-83
2022/07/20 01:34:07;;;;;;;9.20;8.90;;;21.40;99.90;;;;;;5082514;28;20246;-83
2022/07/20 01:36:36;;;;;;;8.90;8.70;;;21.30;99.90;;;;;;5082364;28;20269;-83
2022/07/20 01:39:04;;;;;;;8.85;8.65;;;21.20;99.90;;;;;;5082527;28;20336;-83
2022/07/20 01:41:31;;;;;;;8.90;8.70;;;21.20;99.90;;;;;;5081436;28;20250;-83
2022/07/20 01:43:59;;;;;;;9.30;9.00;;;21.10;99.90;;;;;;5082333;28;20261;-83
2022/07/20 01:46:27;;;;;;;9.40;9.10;;;21.00;99.90;;;;;;5082840;28;20230;-83
2022/07/20 01:48:54;;;;;;;9.30;9.00;;;21.00;99.90;;;;;;5082752;28;20241;-83
2022/07/20 01:51:21;;;;;;;8.85;8.65;;;20.90;99.90;;;;;;5082777;28;20254;-83
2022/07/20 01:53:50;;;;;;;8.75;8.55;;;20.90;99.90;;;;;;5082594;28;20254;-83
2022/07/20 01:56:18;;;;;;;9.05;8.82;;;20.80;99.90;;;;;;5082657;28;20238;-83
2022/07/20 01:58:45;;;;;;;8.93;8.73;;;20.80;99.90;;;;;;5082746;28;20237;-82
2022/07/20 02:01:13;;;;;;;8.70;8.50;;;20.70;99.90;;;;;;5082416;28;20287;-83
2022/07/20 02:03:41;;;;;;;8.50;8.30;;;20.70;99.90;;;;;;5081604;28;20411;-83
2022/07/20 02:06:08;;;;;;;9.02;8.80;;;20.60;99.90;;;;;;5081867;28;20233;-83
2022/07/20 02:08:38;;;;;;;8.90;8.70;;;20.50;99.90;;;;;;5082637;28;20234;-83
2022/07/20 02:11:07;;;;;;;9.30;9.00;;;20.50;99.90;;;;;;5082013;28;20268;-83
2022/07/20 02:13:37;;;;;;;9.10;8.90;;;20.40;99.90;;;;;;5082112;28;20329;-83
2022/07/20 02:16:18;;;;;;;8.88;8.68;;;20.40;99.90;;;;;;5082108;28;20317;-83
2022/07/20 02:18:47;;;;;;;9.30;9.00;;;20.30;99.90;;;;;;5081768;28;20297;-83
2022/07/20 02:21:16;;;;;;;9.20;8.90;;;20.30;99.90;;;;;;5080859;28;20313;-83
2022/07/20 02:23:44;;;;;;;9.50;9.20;;;20.20;99.90;;;;;;5080918;28;20301;-83
2022/07/20 02:26:13;;;;;;;9.30;9.00;;;20.20;99.90;;;;;;5081711;28;20261;-83
2022/07/20 02:28:41;;;;;;;9.52;9.23;;;20.10;99.90;;;;;;5082861;28;20252;-83
2022/07/20 02:31:09;;;;;;;9.50;9.20;;;20.10;99.90;;;;;;5081822;28;20234;-83
2022/07/20 02:33:37;;;;;;;9.50;9.20;;;20.00;99.90;;;;;;5081284;28;20273;-83
2022/07/20 02:36:05;;;;;;;9.20;8.90;;;20.00;99.90;;;;;;5081605;28;20230;-82
2022/07/20 02:38:33;;;;;;;9.00;8.80;;;19.90;99.90;;;;;;5081499;28;20241;-83
2022/07/20 02:41:00;;;;;;;8.93;8.73;;;19.90;99.90;;;;;;5081205;28;20325;-83
2022/07/20 02:43:29;;;;;;;8.82;8.63;;;19.80;99.90;;;;;;5081520;28;20237;-83
2022/07/20 02:45:57;;;;;;;9.10;8.80;;;19.70;99.90;;;;;;5090165;28;20265;-82
2022/07/20 02:48:25;;;;;;;9.10;8.85;;;19.70;99.90;;;;;;5082570;28;20698;-82
2022/07/20 02:50:52;;;;;;;8.60;8.40;;;19.60;99.90;;;;;;5082168;28;20222;-83
2022/07/20 02:53:20;;;;;;;8.63;8.43;;;19.60;99.90;;;;;;5081771;28;20321;-83
2022/07/20 02:55:47;;;;;;;8.88;8.68;;;19.50;99.90;;;;;;5080969;28;20288;-82
2022/07/20 02:58:15;;;;;;;8.63;8.43;;;19.50;99.90;;;;;;5081610;28;20236;-83
2022/07/20 03:00:44;;;;;;;8.57;8.38;;;19.40;99.90;;;;;;5081938;28;20273;-82
2022/07/20 03:03:12;;;;;;;9.10;8.85;;;19.40;99.90;;;;;;5081134;28;20238;-82
2022/07/20 03:05:40;;;;;;;9.80;9.50;;;19.30;99.90;;;;;;5080543;28;20321;-83
2022/07/20 03:08:08;;;;;;;9.80;9.50;;;19.20;99.90;;;;;;5080908;28;20282;-83
2022/07/20 03:10:36;;;;;;;9.90;9.60;;;19.10;99.90;;;;;;5080950;28;20234;-81
2022/07/20 03:13:04;;;;;;;9.70;9.40;;;19.10;99.90;;;;;;5081286;28;20277;-83
2022/07/20 03:15:31;;;;;;;9.63;9.32;;;19.00;99.90;;;;;;5080847;28;20261;-82
2022/07/20 03:18:00;;;;;;;9.80;9.50;;;18.90;99.90;;;;;;5081290;28;20222;-83
2022/07/20 03:20:31;;;;;;;10.07;9.77;;;18.90;99.90;;;;;;5081460;28;20321;-83
2022/07/20 03:22:59;;;;;;;10.25;9.95;;;18.80;99.90;;;;;;5082003;28;20218;-82
2022/07/20 03:25:27;;;;;;;10.23;9.93;;;18.70;99.90;;;;;;5081705;28;20257;-83
2022/07/20 03:27:55;;;;;;;10.32;10.02;;;18.60;99.90;;;;;;5081345;28;20218;-83
2022/07/20 03:30:24;;;;;;;10.40;10.10;;;18.60;99.90;;;;;;5081555;28;20308;-83
2022/07/20 03:32:51;;;;;;;10.85;10.55;;;18.50;99.90;;;;;;5080775;28;20751;-82
2022/07/20 03:35:21;;;;;;;10.40;10.10;;;18.40;99.90;;;;;;5081576;28;20257;-82
2022/07/20 03:37:48;;;;;;;10.10;9.80;;;18.40;99.90;;;;;;5081084;28;20214;-82
2022/07/20 03:40:16;;;;;;;10.30;10.00;;;18.30;99.90;;;;;;5080576;28;20309;-82
2022/07/20 03:42:44;;;;;;;10.38;10.07;;;18.30;99.90;;;;;;5081282;28;20234;-82
2022/07/20 03:45:12;;;;;;;10.23;9.93;;;18.30;99.90;;;;;;5080238;28;20242;-82
2022/07/20 03:47:39;;;;;;;10.13;9.82;;;18.20;99.90;;;;;;5081187;28;20285;-82
2022/07/20 03:50:07;;;;;;;9.95;9.65;;;18.30;99.90;;;;;;5081366;28;20230;-82
2022/07/20 03:52:36;;;;;;;9.90;9.60;;;18.20;99.90;;;;;;5081431;28;20240;-83
2022/07/20 03:55:05;;;;;;;10.20;9.90;;;18.20;99.90;;;;;;5082473;28;20242;-83
2022/07/20 03:57:33;;;;;;;9.90;9.60;;;18.20;99.90;;;;;;5083525;28;20242;-83
2022/07/20 04:00:00;;;;;;;10.00;9.70;;;18.20;99.90;;;;;;5084473;28;20230;-83
2022/07/20 04:02:28;;;;;;;9.93;9.63;;;18.20;99.90;;;;;;5096428;28;20209;-82
2022/07/20 04:04:55;;;;;;;9.98;9.68;;;18.20;99.90;;;;;;5095496;28;20222;-83
2022/07/20 04:07:23;;;;;;;10.20;9.90;;;18.20;99.90;;;;;;5091657;28;20265;-82
2022/07/20 04:09:52;;;;;;;10.23;9.93;;;18.20;99.90;;;;;;5092507;28;20294;-83
2022/07/20 04:12:23;;;;;;;10.00;9.70;;;18.20;99.90;;;;;;5096226;28;20234;-83
2022/07/20 04:14:52;;;;;;;10.18;9.88;;;18.20;99.90;;;;;;5096570;28;20331;-83
2022/07/20 04:17:21;;;;;;;10.30;10.00;;;18.20;99.90;;;;;;5098043;28;20250;-83
2022/07/20 04:19:49;;;;;;;10.05;9.75;;;18.20;99.90;;;;;;5098518;28;20214;-83
2022/07/20 04:22:17;;;;;;;10.02;9.73;;;18.20;99.90;;;;;;5098333;28;20302;-83
2022/07/20 04:24:44;;;;;;;10.10;9.80;;;18.20;99.90;;;;;;5091310;28;20248;-83
2022/07/20 04:27:14;;;;;;;10.10;9.80;;;18.20;99.90;;;;;;5085459;28;20262;-82
2022/07/20 04:29:41;;;;;;;9.90;9.60;;;18.20;99.90;;;;;;5094686;28;20222;-83
2022/07/20 04:32:09;;;;;;;9.55;9.25;;;18.30;99.90;;;;;;5082869;28;20269;-83
2022/07/20 04:34:36;;;;;;;10.07;9.77;;;18.30;99.90;;;;;;5080047;28;20325;-83
2022/07/20 04:37:04;;;;;;;9.85;9.55;;;18.30;99.90;;;;;;5089163;28;20252;-83
2022/07/20 04:39:32;;;;;;;9.95;9.65;;;18.40;99.90;;;;;;5081058;28;20257;-82
2022/07/20 04:41:59;;;;;;;9.95;9.65;;;18.40;99.90;;;;;;5080529;28;20234;-83
2022/07/20 04:44:28;;;;;;;10.00;9.70;;;18.40;99.90;;;;;;5083445;28;20260;-83
2022/07/20 04:46:56;;;;;;;9.77;9.48;;;18.50;99.90;;;;;;5083534;28;20240;-83
2022/07/20 04:49:23;;;;;;;9.82;9.52;;;18.50;99.90;;;;;;5083474;28;20269;-83
2022/07/20 04:51:51;;;;;;;9.95;9.65;;;18.50;99.90;;;;;;5083287;28;20407;-82
2022/07/20 04:54:19;;;;;;;9.80;9.50;;;18.60;99.90;;;;;;5083206;28;20234;-83
2022/07/20 04:56:47;;;;;;;9.90;9.60;;;18.60;99.90;;;;;;5091956;28;20232;-84
2022/07/20 04:59:15;;;;;;;9.77;9.48;;;18.70;99.90;;;;;;5099260;28;20218;-84
2022/07/20 05:01:44;;;;;;;10.15;9.85;;;18.80;99.90;;;;;;5090117;28;20249;-83
2022/07/20 05:04:11;;;;;;;10.30;10.00;;;18.90;99.90;;;;;;5084796;28;20269;-83
2022/07/20 05:06:39;;;;;;;9.90;9.60;;;18.90;99.90;;;;;;5085246;28;20226;-83
2022/07/20 05:09:09;;;;;;;10.00;9.70;;;19.10;99.90;;;;;;5084303;28;20222;-83
2022/07/20 05:11:37;;;;;;;9.93;9.63;;;19.20;99.90;;;;;;5083836;28;20248;-83
2022/07/20 05:14:05;;;;;;;9.90;9.60;;;19.30;99.90;;;;;;5083840;28;20234;-82
2022/07/20 05:16:33;;;;;;;10.10;9.80;;;19.40;99.90;;;;;;5083879;28;20234;-83
2022/07/20 05:19:02;;;;;;;9.88;9.57;;;19.50;99.90;;;;;;5082832;28;20284;-83
2022/07/20 05:21:29;;;;;;;10.20;9.90;;;19.60;99.90;;;;;;5084400;28;20234;-84
2022/07/20 05:23:57;;;;;;;10.25;9.95;;;19.70;99.90;;;;;;5082750;28;20248;-84
2022/07/20 05:26:25;;;;;;;10.15;9.85;;;19.80;99.90;;;;;;5083969;28;20238;-84
2022/07/20 05:28:52;;;;;;;10.35;10.05;;;20.00;99.90;;;;;;5083355;28;20222;-82
2022/07/20 05:31:20;;;;;;;10.23;9.93;;;20.10;99.90;;;;;;5083338;28;20268;-82
2022/07/20 05:33:47;;;;;;;10.30;10.00;;;20.30;99.90;;;;;;5083320;28;20289;-82
2022/07/20 05:36:16;;;;;;;10.52;10.23;;;20.50;99.90;;;;;;5083022;28;20226;-82
2022/07/20 05:38:44;;;;;;;10.50;10.20;;;20.70;99.90;;;;;;5083385;28;20244;-82
2022/07/20 05:41:11;;;;;;;10.70;10.40;;;20.90;99.90;;;;;;5083795;28;20340;-83
2022/07/20 05:43:39;;;;;;;10.80;10.50;;;21.00;99.90;;;;;;5083961;28;20265;-83
2022/07/20 05:46:06;;;;;;;10.50;10.20;;;21.20;99.90;;;;;;5082691;28;20222;-83
2022/07/20 05:48:34;;;;;;;10.80;10.50;;;21.30;99.90;;;;;;5082834;28;20331;-83
2022/07/20 05:51:02;;;;;;;10.45;10.15;;;21.50;99.90;;;;;;5083013;28;20245;-83
2022/07/20 05:53:31;;;;;;;10.40;10.10;;;21.60;99.90;;;;;;5082568;28;20272;-83
2022/07/20 05:55:59;;;;;;;10.57;10.27;;;21.80;99.90;;;;;;5081051;28;20284;-83
2022/07/20 05:58:26;;;;;;;10.45;10.15;;;22.00;99.90;;;;;;5082847;28;20246;-83
2022/07/20 06:00:54;;;;;;;10.20;9.90;;;22.10;99.90;;;;;;5081974;28;20316;-83
2022/07/20 06:03:21;;;;;;;10.50;10.20;;;22.30;99.90;;;;;;5083154;28;20250;-83
2022/07/20 06:05:49;;;;;;;10.13;9.82;;;22.50;99.90;;;;;;5082106;28;20223;-83
2022/07/20 06:08:17;;;;;;;10.73;10.43;;;22.70;99.90;;;;;;5081396;28;20253;-83
2022/07/20 06:10:46;;;;;;;10.65;10.35;;;22.80;99.90;;;;;;5081676;28;20320;-83
2022/07/20 06:13:13;;;;;;;10.57;10.27;;;23.00;99.90;;;;;;5081439;28;20274;-83
2022/07/20 06:15:41;;;;;;;10.63;10.32;;;23.20;99.90;;;;;;5082979;28;20234;-83
2022/07/20 06:18:08;;;;;;;10.80;10.50;;;23.30;99.90;;;;;;5081883;28;20250;-82
2022/07/20 06:20:36;;;;;;;11.07;10.77;;;23.50;99.90;;;;;;5083168;28;20240;-83
2022/07/20 06:23:03;;;;;;;10.98;10.68;;;23.70;99.90;;;;;;5080940;28;20241;-83
2022/07/20 06:25:31;;;;;;;10.80;10.50;;;23.80;99.90;;;;;;5081881;28;20312;-82
2022/07/20 06:28:01;;;;;;;10.80;10.50;;;23.90;99.90;;;;;;5087749;28;20705;-83
2022/07/20 06:30:28;;;;;;;10.68;10.38;;;23.90;99.90;;;;;;5087853;28;20245;-83
2022/07/20 06:32:56;;;;;;;10.80;10.50;;;24.10;99.90;;;;;;5082772;28;20302;-83
2022/07/20 06:35:24;;;;;;;11.20;10.90;;;24.20;99.90;;;;;;5082676;28;20288;-83
2022/07/20 06:37:52;;;;;;;10.65;10.35;;;24.30;99.90;;;;;;5083319;28;20252;-83
2022/07/20 06:40:19;;;;;;;10.38;10.07;;;24.40;99.90;;;;;;5082226;28;20230;-83
2022/07/20 06:42:47;;;;;;;11.00;10.70;;;24.50;99.90;;;;;;5081907;28;20325;-83
2022/07/20 06:45:16;;;;;;;10.77;10.48;;;24.40;99.90;;;;;;5081400;28;20417;-83
2022/07/20 06:47:43;;;;;;;10.90;10.60;;;24.60;99.90;;;;;;5081554;28;20226;-83
2022/07/20 06:50:11;;;;;;;11.00;10.70;;;24.70;99.90;;;;;;5082593;28;20317;-83
2022/07/20 06:52:39;;;;;;;10.90;10.60;;;24.70;99.90;;;;;;5081464;28;20713;-83
2022/07/20 06:55:08;;;;;;;11.00;10.70;;;24.90;99.90;;;;;;5081126;28;20428;-83
2022/07/20 06:57:37;;;;;;;11.25;10.95;;;25.00;99.90;;;;;;5081491;28;20227;-83
2022/07/20 07:00:07;;;;;;;11.00;10.70;;;25.10;99.90;;;;;;5083073;28;20234;-83
2022/07/20 07:02:36;;;;;;;11.10;10.80;;;25.40;99.90;;;;;;5081978;28;20230;-83
2022/07/20 07:05:05;;;;;;;10.93;10.63;;;25.60;99.90;;;;;;5081093;28;20329;-83
2022/07/20 07:07:33;;;;;;;10.98;10.68;;;25.80;99.90;;;;;;5081280;28;20222;-83
2022/07/20 07:10:00;;;;;;;10.70;10.40;;;26.00;99.90;;;;;;5080853;28;20290;-83
2022/07/20 07:12:28;;;;;;;10.70;10.40;;;26.10;99.90;;;;;;5079857;28;20272;-83
2022/07/20 07:14:55;;;;;;;10.75;10.45;;;26.20;99.90;;;;;;5079852;28;20234;-83
2022/07/20 07:17:23;;;;;;;11.10;10.80;;;26.20;99.90;;;;;;5081198;28;20226;-83
2022/07/20 07:19:52;;;;;;;10.85;10.55;;;26.40;99.90;;;;;;5080678;28;21217;-83
2022/07/20 07:22:19;;;;;;;11.20;10.90;;;26.50;99.90;;;;;;5081329;28;20265;-83
2022/07/20 07:24:47;;;;;;;10.90;10.60;;;26.70;99.90;;;;;;5104350;22;20230;-80
2022/07/20 07:27:14;;;;;;;10.90;10.60;;;26.80;99.90;;;;;;5085355;28;20226;-80
2022/07/20 07:29:42;;;;;;;10.85;10.55;;;26.90;99.90;;;;;;5085007;28;20229;-80
2022/07/20 07:32:09;;;;;;;10.73;10.43;;;27.10;99.90;;;;;;5084605;28;20280;-80
2022/07/20 07:34:39;;;;;;;11.02;10.73;;;27.20;99.90;;;;;;5085245;28;20314;-80
2022/07/20 07:37:19;;;;;;;10.98;10.68;;;27.40;99.90;;;;;;5084455;28;20658;-81
2022/07/20 07:39:47;;;;;;;10.90;10.60;;;27.50;99.90;;;;;;5083258;28;20233;-80
2022/07/20 07:42:17;;;;;;;11.18;10.88;;;27.70;99.90;;;;;;5084229;28;20288;-80
2022/07/20 07:44:46;;;;;;;11.30;11.00;;;27.90;99.90;;;;;;5083261;28;20268;-81
2022/07/20 07:47:15;;;;;;;11.20;10.90;;;27.90;99.90;;;;;;5083634;28;20234;-81
2022/07/20 07:49:44;;;;;;;11.20;10.90;;;28.10;99.90;;;;;;5084116;28;20261;-82
2022/07/20 07:52:23;;;;;;;10.90;10.60;;;28.20;99.90;;;;;;5082833;28;20264;-81
2022/07/20 07:54:52;;;;;;;10.85;10.55;;;28.20;99.90;;;;;;5081643;28;20249;-81
2022/07/20 07:57:21;;;;;;;10.95;10.65;;;28.30;99.90;;;;;;5082884;28;20221;-82
2022/07/20 07:59:52;;;;;;;10.90;10.60;;;28.50;99.90;;;;;;5082913;28;20319;-82
2022/07/20 08:02:21;;;;;;;10.98;10.68;;;28.70;99.90;;;;;;5082772;28;20226;-82
2022/07/20 08:04:51;;;;;;;10.70;10.40;;;28.90;99.90;;;;;;5082032;28;20230;-81
2022/07/20 08:07:22;;;;;;;10.60;10.30;;;29.00;99.90;;;;;;5082411;28;20249;-81
2022/07/20 08:09:49;;;;;;;11.10;10.80;;;29.10;99.90;;;;;;5083894;28;20670;-81
2022/07/20 08:12:20;;;;;;;10.98;10.68;;;29.20;99.90;;;;;;5082915;28;20268;-81
2022/07/20 08:14:48;;;;;;;10.80;10.50;;;29.40;99.90;;;;;;5083113;28;20234;-81
2022/07/20 08:17:19;;;;;;;11.25;10.95;;;29.50;99.90;;;;;;5083017;28;20241;-82
2022/07/20 08:19:46;;;;;;;11.10;10.80;;;29.70;99.90;;;;;;5087010;28;20229;-82
2022/07/20 08:22:18;;;;;;;10.90;10.60;;;29.90;99.90;;;;;;5088161;28;20233;-82
2022/07/20 08:24:48;;;;;;;10.93;10.63;;;30.10;99.90;;;;;;5086566;28;20238;-83
2022/07/20 08:27:16;;;;;;;11.23;10.93;;;30.30;99.90;;;;;;5093142;28;20281;-82
2022/07/20 08:29:45;;;;;;;11.27;10.98;;;30.50;99.90;;;;;;5091645;28;20257;-82
2022/07/20 08:32:14;;;;;;;11.18;10.88;;;30.70;99.90;;;;;;5088108;28;20284;-82
2022/07/20 08:34:43;;;;;;;11.00;10.70;;;30.80;99.90;;;;;;5087612;28;20265;-82
2022/07/20 08:37:11;;;;;;;11.07;10.77;;;31.00;99.90;;;;;;5087422;28;20218;-82
2022/07/20 08:39:42;;;;;;;11.05;10.75;;;31.30;99.90;;;;;;5087027;28;20258;-82
2022/07/20 08:42:22;;;;;;;11.25;10.95;;;31.40;99.90;;;;;;5085680;28;20230;-80
2022/07/20 08:44:50;;;;;;;11.40;11.10;;;31.60;99.90;;;;;;5085380;28;20368;-83
2022/07/20 08:47:19;;;;;;;11.40;11.10;;;31.70;99.90;;;;;;5088526;28;20230;-82
2022/07/20 08:49:49;;;;;;;11.20;10.90;;;31.80;99.90;;;;;;5087528;28;20246;-82
2022/07/20 08:52:18;;;;;;;11.30;11.00;;;31.90;99.90;;;;;;5087138;28;20230;-82
2022/07/20 08:54:47;;;;;;;11.80;11.40;;;32.10;99.90;;;;;;5088899;28;20257;-82
2022/07/20 09:00:06;;;;;;;11.25;10.95;;;32.30;99.90;;;;;;5084983;28;20256;-83
2022/07/20 09:02:54;;;;;;;11.20;10.90;;;32.50;99.90;;;;;;5085203;28;20236;-83
2022/07/20 09:05:23;;;;;;;11.20;10.90;;;32.70;99.90;;;;;;5086229;28;20238;-83
2022/07/20 09:07:59;;;;;;;11.00;10.70;;;33.00;99.90;;;;;;5084795;28;20249;-83
2022/07/20 09:10:29;;;;;;;10.98;10.68;;;33.20;99.90;;;;;;5085182;28;20292;-83
2022/07/20 09:13:08;;;;;;;10.82;10.52;;;33.30;99.90;;;;;;5084345;28;20312;-83
2022/07/20 09:15:40;;;;;;;10.85;10.55;;;33.50;99.90;;;;;;5083923;28;20245;-83
2022/07/20 09:18:19;;;;;;;11.02;10.73;;;33.70;99.90;;;;;;5084367;28;20241;-83
2022/07/20 09:23:33;;;;;;;10.98;10.68;;;34.00;99.90;;;;;;5084890;28;20312;-81
2022/07/20 09:26:04;;;;;;;10.93;10.63;;;34.10;99.90;;;;;;5085113;28;20249;-81
2022/07/20 09:28:48;;;;;;;10.88;10.57;;;34.50;99.90;;;;;;5084743;28;20245;-81
2022/07/20 09:31:19;;;;;;;10.95;10.65;;;34.70;99.90;;;;;;5085828;28;20237;-81
2022/07/20 09:33:57;;;;;;;10.85;10.55;;;34.80;99.90;;;;;;5084441;28;20250;-81
2022/07/20 09:36:27;;;;;;;11.10;10.80;;;35.00;99.90;;;;;;5086850;28;20244;-81
2022/07/20 09:38:56;;;;;;;11.10;10.80;;;34.90;99.90;;;;;;5085879;28;20231;-82
2022/07/20 09:41:26;;;;;;;11.18;10.88;;;35.10;99.90;;;;;;5086860;28;20234;-81
2022/07/20 09:44:04;;;;;;;11.13;10.82;;;35.40;99.90;;;;;;5087300;28;20234;-81
2022/07/20 09:46:34;;;;;;;11.18;10.88;;;35.80;99.90;;;;;;5087236;28;20240;-81
2022/07/20 09:49:05;;;;;;;10.85;10.55;;;35.90;99.90;;;;;;5085836;28;20294;-82
2022/07/20 09:51:40;;;;;;;11.00;10.70;;;36.20;99.90;;;;;;5086833;28;20265;-81
2022/07/20 09:54:09;;;;;;;11.10;10.80;;;36.50;99.90;;;;;;5085336;28;20237;-82
2022/07/20 09:56:40;;;;;;;10.85;10.55;;;36.50;99.90;;;;;;5086740;28;20225;-82
2022/07/20 09:59:17;;;;;;;11.10;10.80;;;36.50;99.90;;;;;;5085952;28;20260;-82
2022/07/20 10:01:49;;;;;;;10.65;10.35;;;36.80;99.90;;;;;;5085967;28;20263;-82
2022/07/20 10:04:17;;;;;;;11.00;10.70;;;37.00;99.20;;;;;;5086353;28;20242;-81
2022/07/20 10:06:49;;;;;;;10.82;10.52;;;37.00;99.30;;;;;;5085395;28;20262;-81
2022/07/20 10:09:17;;;;;;;11.07;10.77;;;37.10;99.10;;;;;;5085219;28;20237;-82
2022/07/20 10:11:45;;;;;;;10.82;10.52;;;37.40;98.00;;;;;;5085878;28;20240;-82
2022/07/20 10:14:23;;;;;;;10.85;10.55;;;37.30;98.50;;;;;;5085681;28;20233;-82
2022/07/20 10:16:52;;;;;;;10.90;10.60;;;37.50;98.30;;;;;;5086208;28;20226;-82
2022/07/20 10:19:41;;;;;;;10.75;10.45;;;37.70;98.20;;;;;;5086903;28;20218;-82
2022/07/20 10:22:10;;;;;;;10.80;10.50;;;37.70;96.70;;;;;;5087841;28;20234;-82
2022/07/20 10:24:39;;;;;;;10.95;10.65;;;37.60;97.20;;;;;;5086221;28;20237;-82
2022/07/20 10:27:26;;;;;;;10.95;10.65;;;37.70;98.00;;;;;;5086746;28;20237;-82
2022/07/20 10:29:58;;;;;;;10.90;10.60;;;37.90;97.30;;;;;;5085549;28;20244;-82
2022/07/20 10:32:28;;;;;;;10.88;10.57;;;37.80;96.50;;;;;;5085567;28;20229;-82
2022/07/20 10:35:04;;;;;;;10.75;10.45;;;37.60;96.60;;;;;;5085303;28;20325;-82
2022/07/20 10:37:40;;;;;;;10.60;10.30;;;37.60;96.90;;;;;;5085909;28;20229;-82
2022/07/20 10:40:19;;;;;;;10.70;10.40;;;37.70;97.20;;;;;;5088351;28;20237;-82
2022/07/20 10:42:48;;;;;;;10.80;10.50;;;37.50;98.00;;;;;;5088441;28;20946;-81
2022/07/20 10:45:35;;;;;;;11.00;10.70;;;37.80;97.40;;;;;;5085957;28;20234;-82
2022/07/20 10:48:22;;;;;;;11.05;10.75;;;38.20;97.80;;;;;;5085306;28;20218;-82
2022/07/20 10:50:52;;;;;;;11.00;10.70;;;38.60;97.00;;;;;;5088942;28;20282;-82
2022/07/20 10:53:38;;;;;;;11.00;10.70;;;39.00;95.10;;;;;;5096947;28;20238;-82
2022/07/20 10:56:08;;;;;;;10.98;10.68;;;39.10;95.40;;;;;;5088535;28;20316;-82
2022/07/20 10:58:37;;;;;;;11.05;10.75;;;39.00;94.50;;;;;;5087649;28;20226;-82
2022/07/20 11:01:16;;;;;;;10.90;10.60;;;39.10;94.60;;;;;;5086838;28;20233;-82
2022/07/20 11:03:46;;;;;;;11.00;10.70;;;38.90;93.80;;;;;;5085806;28;20288;-82
2022/07/20 11:06:18;;;;;;;11.23;10.93;;;38.70;94.40;;;;;;5085879;28;20226;-82
2022/07/20 11:08:53;;;;;;;11.23;10.93;;;38.40;93.80;;;;;;5085478;28;20249;-82
2022/07/20 11:11:25;;;;;;;11.25;10.95;;;38.40;95.00;;;;;;5086137;28;20225;-82
2022/07/20 11:13:53;;;;;;;11.02;10.73;;;38.60;94.30;;;;;;5084663;28;20345;-82
2022/07/20 11:16:33;;;;;;;11.10;10.80;;;38.60;93.30;;;;;;5084414;28;20254;-82
2022/07/20 11:19:02;;;;;;;11.63;11.30;;;38.80;93.70;;;;;;5084254;28;20268;-83
2022/07/20 11:21:40;;;;;;;11.50;11.20;;;39.10;93.00;;;;;;5085213;28;20217;-82
2022/07/20 11:24:26;;;;;;;11.27;10.98;;;39.20;93.30;;;;;;5084507;28;20264;-82
2022/07/20 11:26:56;;;;;;;11.15;10.85;;;39.20;93.20;;;;;;5084907;28;20233;-82
2022/07/20 11:29:27;;;;;;;11.30;11.00;;;39.40;94.30;;;;;;5083900;28;20244;-83
2022/07/20 11:32:13;;;;;;;11.40;11.10;;;39.50;93.20;;;;;;5083880;28;20276;-82
2022/07/20 11:34:53;;;;;;;11.30;11.00;;;39.60;93.80;;;;;;5083588;28;20233;-82
2022/07/20 11:37:22;;;;;;;11.43;11.13;;;39.70;92.10;;;;;;5084396;28;20225;-83
2022/07/20 11:39:50;;;;;;;11.27;10.98;;;39.70;92.50;;;;;;5084688;28;20287;-82
2022/07/20 11:42:19;;;;;;;11.55;11.25;;;39.70;91.80;;;;;;5084866;28;20218;-82
2022/07/20 11:45:00;;;;;;;11.50;11.20;;;39.60;92.00;;;;;;5083881;28;20263;-83
2022/07/20 11:47:29;;;;;;;11.57;11.27;;;39.40;91.40;;;;;;5083948;28;20245;-83
2022/07/20 11:50:15;;;;;;;11.50;11.20;;;39.00;92.00;;;;;;5084109;28;20222;-82
2022/07/20 11:52:44;;;;;;;11.65;11.35;;;39.10;91.90;;;;;;5083705;28;20233;-82
2022/07/20 11:55:13;;;;;;;11.73;11.40;;;39.20;91.80;;;;;;5083157;28;20317;-83
2022/07/20 11:57:42;;;;;;;11.63;11.32;;;39.60;92.40;;;;;;5083583;28;20279;-83
2022/07/20 12:00:14;;;;;;;12.00;11.60;;;40.00;91.60;;;;;;5083341;28;20225;-82
2022/07/20 12:02:43;;;;;;;12.10;11.70;;;40.20;90.10;;;;;;5083444;28;20248;-83
2022/07/20 12:05:19;;;;;;;12.25;11.85;;;40.10;90.80;;;;;;5083483;28;20287;-83
2022/07/20 12:10:35;;;;;;;12.07;11.68;;;40.10;88.50;;;;;;5084749;28;20210;-82
2022/07/20 12:13:05;;;;;;;12.18;11.77;;;40.00;89.00;;;;;;5084252;28;20265;-83
2022/07/20 12:15:34;;;;;;;11.82;11.43;;;40.00;90.40;;;;;;5083551;28;20323;-82
2022/07/20 12:18:12;;;;;;;11.45;11.15;;;40.10;88.40;;;;;;5084008;28;21084;-83
2022/07/20 12:21:00;;;;;;;11.98;11.57;;;40.40;87.10;;;;;;5084556;28;20229;-83
2022/07/20 12:23:29;;;;;;;11.57;11.27;;;40.80;86.60;;;;;;5083242;28;20233;-83
2022/07/20 12:25:59;;;;;;;11.95;11.55;;;41.00;83.60;;;;;;5084654;28;20226;-83
2022/07/20 12:28:37;;;;;;;12.10;11.70;;;40.70;84.60;;;;;;5083985;28;20248;-83
2022/07/20 12:31:15;;;;;;;11.45;11.15;;;41.00;82.80;;;;;;5083845;28;20232;-83
2022/07/20 12:34:13;;;;;;;11.35;11.05;;;41.30;82.80;;;;;;5088197;28;20803;-83
2022/07/20 12:36:49;;;;;;;11.32;11.02;;;41.60;82.70;;;;;;5087791;28;20252;-83
2022/07/20 12:39:37;;;;;;;11.40;11.10;;;41.40;81.60;;;;;;5088391;28;20233;-83
2022/07/20 12:42:15;;;;;;;11.40;11.10;;;41.50;81.10;;;;;;5097708;28;20202;-83
2022/07/20 12:44:46;;;;;;;11.60;11.30;;;41.40;79.20;;;;;;5098552;28;20209;-83
2022/07/20 12:47:16;;;;;;;11.82;11.43;;;41.80;80.20;;;;;;5085218;28;20291;-83
2022/07/20 12:49:45;;;;;;;11.82;11.43;;;42.10;81.00;;;;;;5080207;28;20256;-83
2022/07/20 12:52:13;;;;;;;11.38;11.07;;;42.10;77.40;;;;;;5083388;28;20252;-83
2022/07/20 12:54:41;;;;;;;11.50;11.20;;;41.70;76.90;;;;;;5084111;28;20704;-83
2022/07/20 12:57:12;;;;;;;11.57;11.27;;;41.20;79.10;;;;;;5085180;28;20256;-83
2022/07/20 12:59:40;;;;;;;11.32;11.02;;;40.80;79.90;;;;;;5083437;28;20245;-83
2022/07/20 13:02:10;;;;;;;11.45;11.15;;;40.40;79.60;;;;;;5083045;28;20265;-83
2022/07/20 13:04:39;;;;;;;11.57;11.27;;;40.30;79.70;;;;;;5086202;28;20255;-83
2022/07/20 13:07:18;;;;;;;11.85;11.45;;;40.50;77.70;;;;;;5090729;28;20233;-83
2022/07/20 13:09:46;;;;;;;11.63;11.27;;;41.00;76.20;;;;;;5089539;28;20225;-83
2022/07/20 13:12:18;;;;;;;12.02;11.63;;;41.40;75.60;;;;;;5088834;28;20221;-83